Terminal Aerodrome Forecast
Issued by NWS Goodland, KS

Home | Current Version | Previous Version | Text Only | Print | Product List | Glossary On
Versions: 1 2 3 4 5 6 7 8 9 10 11 12
000
FTUS43 KGLD 271724
TAFGLD
TAF
KGLD 271724Z 2718/2818 26011KT P6SM SKC
     FM280000 23010KT P6SM SKC
     FM281200 30012KT P6SM SCT200
     FM281600 33018G28KT P6SM SCT100 SCT200=

USA.gov is the U.S. government's official web portal to all federal, state and local government web resources and services.